sensor_id;sensor_type;location;lat;lon;timestamp;temperature;humidity
4245;DHT22;2136;48.502;9.194;2022-09-28T00:01:06;11.20;99.90
4245;DHT22;2136;48.502;9.194;2022-09-28T00:03:34;11.20;99.90
4245;DHT22;2136;48.502;9.194;2022-09-28T00:06:03;11.20;99.90
4245;DHT22;2136;48.502;9.194;2022-09-28T00:08:31;11.20;99.90
4245;DHT22;2136;48.502;9.194;2022-09-28T00:10:57;11.30;99.90
4245;DHT22;2136;48.502;9.194;2022-09-28T00:13:24;11.20;99.90
4245;DHT22;2136;48.502;9.194;2022-09-28T00:15:58;11.30;99.90
4245;DHT22;2136;48.502;9.194;2022-09-28T00:18:25;11.30;99.90
4245;DHT22;2136;48.502;9.194;2022-09-28T00:21:00;11.20;99.90
4245;DHT22;2136;48.502;9.194;2022-09-28T00:23:27;11.30;99.90
4245;DHT22;2136;48.502;9.194;2022-09-28T00:25:54;11.30;99.90
4245;DHT22;2136;48.502;9.194;2022-09-28T00:28:21;11.40;99.90
4245;DHT22;2136;48.502;9.194;2022-09-28T00:30:53;11.40;99.90
4245;DHT22;2136;48.502;9.194;2022-09-28T00:33:20;11.40;99.90
4245;DHT22;2136;48.502;9.194;2022-09-28T00:35:53;11.40;99.90
4245;DHT22;2136;48.502;9.194;2022-09-28T00:38:25;11.50;99.90
4245;DHT22;2136;48.502;9.194;2022-09-28T00:40:52;11.50;99.90
4245;DHT22;2136;48.502;9.194;2022-09-28T00:43:20;11.50;99.90
4245;DHT22;2136;48.502;9.194;2022-09-28T00:45:54;11.50;99.90
4245;DHT22;2136;48.502;9.194;2022-09-28T00:48:22;11.50;99.90
4245;DHT22;2136;48.502;9.194;2022-09-28T00:50:50;11.50;99.90
4245;DHT22;2136;48.502;9.194;2022-09-28T00:53:20;11.50;99.90
4245;DHT22;2136;48.502;9.194;2022-09-28T00:55:52;11.60;99.90
4245;DHT22;2136;48.502;9.194;2022-09-28T00:58:22;11.50;99.90
4245;DHT22;2136;48.502;9.194;2022-09-28T01:00:52;11.50;99.90
4245;DHT22;2136;48.502;9.194;2022-09-28T01:03:20;11.50;99.90
4245;DHT22;2136;48.502;9.194;2022-09-28T01:05:47;11.50;99.90
4245;DHT22;2136;48.502;9.194;2022-09-28T01:08:17;11.60;99.90
4245;DHT22;2136;48.502;9.194;2022-09-28T01:10:46;11.60;99.90
4245;DHT22;2136;48.502;9.194;2022-09-28T01:13:15;11.60;99.90
4245;DHT22;2136;48.502;9.194;2022-09-28T01:15:48;11.60;99.90
4245;DHT22;2136;48.502;9.194;2022-09-28T01:18:27;11.60;99.90
4245;DHT22;2136;48.502;9.194;2022-09-28T01:21:00;11.70;99.90
4245;DHT22;2136;48.502;9.194;2022-09-28T01:32:24;11.50;99.90
4245;DHT22;2136;48.502;9.194;2022-09-28T01:35:00;11.60;99.90
4245;DHT22;2136;48.502;9.194;2022-09-28T01:37:34;11.60;99.90
4245;DHT22;2136;48.502;9.194;2022-09-28T01:40:04;11.60;99.90
4245;DHT22;2136;48.502;9.194;2022-09-28T01:42:36;11.60;99.90
4245;DHT22;2136;48.502;9.194;2022-09-28T01:45:06;11.70;99.90
4245;DHT22;2136;48.502;9.194;2022-09-28T01:47:37;11.70;99.90
4245;DHT22;2136;48.502;9.194;2022-09-28T01:50:09;11.70;99.90
4245;DHT22;2136;48.502;9.194;2022-09-28T01:52:43;11.70;99.90
4245;DHT22;2136;48.502;9.194;2022-09-28T01:55:12;11.70;99.90
4245;DHT22;2136;48.502;9.194;2022-09-28T01:57:48;11.80;99.90
4245;DHT22;2136;48.502;9.194;2022-09-28T02:00:17;11.80;99.90
4245;DHT22;2136;48.502;9.194;2022-09-28T02:02:49;11.80;99.90
4245;DHT22;2136;48.502;9.194;2022-09-28T02:05:21;11.70;99.90
4245;DHT22;2136;48.502;9.194;2022-09-28T02:07:53;11.80;99.90
4245;DHT22;2136;48.502;9.194;2022-09-28T02:10:24;11.70;99.90
4245;DHT22;2136;48.502;9.194;2022-09-28T02:12:57;11.70;99.90
4245;DHT22;2136;48.502;9.194;2022-09-28T02:15:29;11.70;99.90
4245;DHT22;2136;48.502;9.194;2022-09-28T02:17:57;11.70;99.90
4245;DHT22;2136;48.502;9.194;2022-09-28T02:20:26;11.70;99.90
4245;DHT22;2136;48.502;9.194;2022-09-28T02:22:56;11.70;99.90
4245;DHT22;2136;48.502;9.194;2022-09-28T02:25:29;11.80;99.90
4245;DHT22;2136;48.502;9.194;2022-09-28T02:27:59;11.80;99.90
4245;DHT22;2136;48.502;9.194;2022-09-28T02:30:28;11.80;99.90
4245;DHT22;2136;48.502;9.194;2022-09-28T02:32:59;11.80;99.90
4245;DHT22;2136;48.502;9.194;2022-09-28T02:35:27;11.80;99.90
4245;DHT22;2136;48.502;9.194;2022-09-28T02:37:54;11.80;99.90
4245;DHT22;2136;48.502;9.194;2022-09-28T02:40:24;11.80;99.90
4245;DHT22;2136;48.502;9.194;2022-09-28T02:42:57;11.70;99.90
4245;DHT22;2136;48.502;9.194;2022-09-28T02:45:44;11.80;99.90
4245;DHT22;2136;48.502;9.194;2022-09-28T02:48:23;11.80;99.90
4245;DHT22;2136;48.502;9.194;2022-09-28T02:50:59;11.80;99.90
4245;DHT22;2136;48.502;9.194;2022-09-28T02:53:44;11.80;99.90
4245;DHT22;2136;48.502;9.194;2022-09-28T02:56:26;11.80;99.90
4245;DHT22;2136;48.502;9.194;2022-09-28T02:59:05;11.80;99.90
4245;DHT22;2136;48.502;9.194;2022-09-28T03:01:43;11.90;99.90
4245;DHT22;2136;48.502;9.194;2022-09-28T03:04:20;11.90;99.90
4245;DHT22;2136;48.502;9.194;2022-09-28T03:06:54;11.90;99.90
4245;DHT22;2136;48.502;9.194;2022-09-28T03:09:28;11.90;99.90
4245;DHT22;2136;48.502;9.194;2022-09-28T03:12:00;11.90;99.90
4245;DHT22;2136;48.502;9.194;2022-09-28T03:14:29;11.90;99.30
4245;DHT22;2136;48.502;9.194;2022-09-28T03:16:58;12.00;98.80
4245;DHT22;2136;48.502;9.194;2022-09-28T03:19:27;12.00;98.60
4245;DHT22;2136;48.502;9.194;2022-09-28T03:21:55;12.10;98.70
4245;DHT22;2136;48.502;9.194;2022-09-28T03:24:23;12.10;98.70
4245;DHT22;2136;48.502;9.194;2022-09-28T03:26:50;12.10;99.20
4245;DHT22;2136;48.502;9.194;2022-09-28T03:29:17;12.10;99.50
4245;DHT22;2136;48.502;9.194;2022-09-28T03:31:45;12.10;99.90
4245;DHT22;2136;48.502;9.194;2022-09-28T03:34:14;12.10;99.90
4245;DHT22;2136;48.502;9.194;2022-09-28T03:36:41;12.20;99.90
4245;DHT22;2136;48.502;9.194;2022-09-28T03:39:08;12.10;99.90
4245;DHT22;2136;48.502;9.194;2022-09-28T03:41:35;12.20;99.90
4245;DHT22;2136;48.502;9.194;2022-09-28T03:44:02;12.20;99.90
4245;DHT22;2136;48.502;9.194;2022-09-28T03:46:29;12.20;99.90
4245;DHT22;2136;48.502;9.194;2022-09-28T03:48:56;12.20;99.90
4245;DHT22;2136;48.502;9.194;2022-09-28T03:51:25;12.20;99.90
4245;DHT22;2136;48.502;9.194;2022-09-28T03:53:51;12.20;99.90
4245;DHT22;2136;48.502;9.194;2022-09-28T03:56:18;12.20;99.90
4245;DHT22;2136;48.502;9.194;2022-09-28T03:58:45;12.20;99.90
4245;DHT22;2136;48.502;9.194;2022-09-28T04:01:13;12.20;99.90
4245;DHT22;2136;48.502;9.194;2022-09-28T04:03:41;12.20;99.90
4245;DHT22;2136;48.502;9.194;2022-09-28T04:06:08;12.20;99.90
4245;DHT22;2136;48.502;9.194;2022-09-28T04:08:36;12.30;99.90
4245;DHT22;2136;48.502;9.194;2022-09-28T04:11:03;12.30;99.90
4245;DHT22;2136;48.502;9.194;2022-09-28T04:13:30;12.40;99.90
4245;DHT22;2136;48.502;9.194;2022-09-28T04:15:58;12.40;99.90
4245;DHT22;2136;48.502;9.194;2022-09-28T04:18:25;12.40;99.90
4245;DHT22;2136;48.502;9.194;2022-09-28T04:20:59;12.40;99.90
4245;DHT22;2136;48.502;9.194;2022-09-28T04:23:28;12.30;99.90
4245;DHT22;2136;48.502;9.194;2022-09-28T04:25:56;12.40;99.90
4245;DHT22;2136;48.502;9.194;2022-09-28T04:28:23;12.30;99.90
4245;DHT22;2136;48.502;9.194;2022-09-28T04:31:09;12.30;99.90
4245;DHT22;2136;48.502;9.194;2022-09-28T04:33:36;12.20;99.90
4245;DHT22;2136;48.502;9.194;2022-09-28T04:36:03;12.20;99.90
4245;DHT22;2136;48.502;9.194;2022-09-28T04:38:30;12.20;99.90
4245;DHT22;2136;48.502;9.194;2022-09-28T04:40:58;12.10;99.90
4245;DHT22;2136;48.502;9.194;2022-09-28T04:43:25;12.10;99.90
4245;DHT22;2136;48.502;9.194;2022-09-28T04:45:57;12.10;99.90
4245;DHT22;2136;48.502;9.194;2022-09-28T04:48:23;12.10;99.90
4245;DHT22;2136;48.502;9.194;2022-09-28T04:50:52;12.10;99.90
4245;DHT22;2136;48.502;9.194;2022-09-28T04:53:19;12.10;99.90
4245;DHT22;2136;48.502;9.194;2022-09-28T04:55:54;12.10;99.90
4245;DHT22;2136;48.502;9.194;2022-09-28T04:58:23;12.10;99.90
4245;DHT22;2136;48.502;9.194;2022-09-28T05:00:49;12.10;99.90
4245;DHT22;2136;48.502;9.194;2022-09-28T05:03:17;12.10;99.90
4245;DHT22;2136;48.502;9.194;2022-09-28T05:05:45;12.10;99.90
4245;DHT22;2136;48.502;9.194;2022-09-28T05:08:12;12.00;99.90
4245;DHT22;2136;48.502;9.194;2022-09-28T05:10:39;12.00;99.90
4245;DHT22;2136;48.502;9.194;2022-09-28T05:13:06;12.00;99.90
4245;DHT22;2136;48.502;9.194;2022-09-28T05:15:34;12.00;99.90
4245;DHT22;2136;48.502;9.194;2022-09-28T05:18:02;12.00;99.90
4245;DHT22;2136;48.502;9.194;2022-09-28T05:20:29;12.00;99.90
4245;DHT22;2136;48.502;9.194;2022-09-28T05:22:56;12.00;99.90
4245;DHT22;2136;48.502;9.194;2022-09-28T05:25:22;12.10;99.90
4245;DHT22;2136;48.502;9.194;2022-09-28T05:27:53;12.10;99.90
4245;DHT22;2136;48.502;9.194;2022-09-28T05:30:21;12.00;99.90
4245;DHT22;2136;48.502;9.194;2022-09-28T05:32:49;12.00;99.90
4245;DHT22;2136;48.502;9.194;2022-09-28T05:35:16;12.00;99.90
4245;DHT22;2136;48.502;9.194;2022-09-28T05:37:43;12.00;99.90
4245;DHT22;2136;48.502;9.194;2022-09-28T05:40:11;12.00;99.90
4245;DHT22;2136;48.502;9.194;2022-09-28T05:42:38;12.00;99.90
4245;DHT22;2136;48.502;9.194;2022-09-28T05:45:06;12.10;99.90
4245;DHT22;2136;48.502;9.194;2022-09-28T05:47:36;12.10;99.90
4245;DHT22;2136;48.502;9.194;2022-09-28T05:50:06;12.20;99.90
4245;DHT22;2136;48.502;9.194;2022-09-28T05:52:34;12.10;99.90
4245;DHT22;2136;48.502;9.194;2022-09-28T05:55:00;12.10;99.90
4245;DHT22;2136;48.502;9.194;2022-09-28T05:57:27;12.10;99.90
4245;DHT22;2136;48.502;9.194;2022-09-28T05:59:55;12.10;99.90
4245;DHT22;2136;48.502;9.194;2022-09-28T06:02:22;12.10;99.90
4245;DHT22;2136;48.502;9.194;2022-09-28T06:04:49;12.10;99.90
4245;DHT22;2136;48.502;9.194;2022-09-28T06:07:19;12.20;99.90
4245;DHT22;2136;48.502;9.194;2022-09-28T06:09:46;12.10;99.90
4245;DHT22;2136;48.502;9.194;2022-09-28T06:12:13;12.20;99.90
4245;DHT22;2136;48.502;9.194;2022-09-28T06:14:40;12.20;99.90
4245;DHT22;2136;48.502;9.194;2022-09-28T06:17:07;12.20;99.90
4245;DHT22;2136;48.502;9.194;2022-09-28T06:19:34;12.20;99.90
4245;DHT22;2136;48.502;9.194;2022-09-28T06:22:01;12.20;99.90
4245;DHT22;2136;48.502;9.194;2022-09-28T06:24:29;12.20;99.90
4245;DHT22;2136;48.502;9.194;2022-09-28T06:26:56;12.20;99.90
4245;DHT22;2136;48.502;9.194;2022-09-28T06:29:22;12.20;99.90
4245;DHT22;2136;48.502;9.194;2022-09-28T06:31:49;12.20;99.90
4245;DHT22;2136;48.502;9.194;2022-09-28T06:34:16;12.10;99.90
4245;DHT22;2136;48.502;9.194;2022-09-28T06:36:44;12.10;99.90
4245;DHT22;2136;48.502;9.194;2022-09-28T06:39:10;12.10;99.90
4245;DHT22;2136;48.502;9.194;2022-09-28T06:41:38;12.10;99.90
4245;DHT22;2136;48.502;9.194;2022-09-28T06:44:05;12.10;99.90
4245;DHT22;2136;48.502;9.194;2022-09-28T06:46:32;12.00;99.90
4245;DHT22;2136;48.502;9.194;2022-09-28T06:49:02;12.00;99.90
4245;DHT22;2136;48.502;9.194;2022-09-28T06:51:30;12.10;99.90
4245;DHT22;2136;48.502;9.194;2022-09-28T06:53:57;12.10;99.90
4245;DHT22;2136;48.502;9.194;2022-09-28T06:56:24;12.10;99.90
4245;DHT22;2136;48.502;9.194;2022-09-28T06:58:52;12.10;99.90
4245;DHT22;2136;48.502;9.194;2022-09-28T07:01:20;12.10;99.90
4245;DHT22;2136;48.502;9.194;2022-09-28T07:03:47;12.10;99.90
4245;DHT22;2136;48.502;9.194;2022-09-28T07:06:13;12.10;99.90
4245;DHT22;2136;48.502;9.194;2022-09-28T07:08:40;12.10;99.90
4245;DHT22;2136;48.502;9.194;2022-09-28T07:11:07;12.10;99.90
4245;DHT22;2136;48.502;9.194;2022-09-28T07:13:34;12.10;99.90
4245;DHT22;2136;48.502;9.194;2022-09-28T07:16:03;12.10;99.90
4245;DHT22;2136;48.502;9.194;2022-09-28T07:18:30;12.10;99.90
4245;DHT22;2136;48.502;9.194;2022-09-28T07:20:58;12.20;99.90
4245;DHT22;2136;48.502;9.194;2022-09-28T07:23:27;12.10;99.90
4245;DHT22;2136;48.502;9.194;2022-09-28T07:25:55;12.20;99.90
4245;DHT22;2136;48.502;9.194;2022-09-28T07:28:22;12.20;99.90
4245;DHT22;2136;48.502;9.194;2022-09-28T07:30:49;12.20;99.90
4245;DHT22;2136;48.502;9.194;2022-09-28T07:33:17;12.30;99.90
4245;DHT22;2136;48.502;9.194;2022-09-28T07:35:50;12.30;99.90
4245;DHT22;2136;48.502;9.194;2022-09-28T07:38:18;12.40;99.90
4245;DHT22;2136;48.502;9.194;2022-09-28T07:40:44;12.40;99.90
4245;DHT22;2136;48.502;9.194;2022-09-28T07:43:29;12.50;99.90
4245;DHT22;2136;48.502;9.194;2022-09-28T07:45:56;12.50;99.90
4245;DHT22;2136;48.502;9.194;2022-09-28T07:48:24;12.50;99.90
4245;DHT22;2136;48.502;9.194;2022-09-28T07:50:52;12.50;99.90
4245;DHT22;2136;48.502;9.194;2022-09-28T07:53:22;12.60;99.90
4245;DHT22;2136;48.502;9.194;2022-09-28T07:55:50;12.60;99.90
4245;DHT22;2136;48.502;9.194;2022-09-28T07:58:17;12.60;99.90
4245;DHT22;2136;48.502;9.194;2022-09-28T08:00:45;12.60;99.90
4245;DHT22;2136;48.502;9.194;2022-09-28T08:03:13;12.60;99.90
4245;DHT22;2136;48.502;9.194;2022-09-28T08:05:41;12.60;99.90
4245;DHT22;2136;48.502;9.194;2022-09-28T08:08:08;12.70;99.90
4245;DHT22;2136;48.502;9.194;2022-09-28T08:10:35;12.60;99.90
4245;DHT22;2136;48.502;9.194;2022-09-28T08:13:02;12.60;99.90
4245;DHT22;2136;48.502;9.194;2022-09-28T08:15:31;12.60;99.90
4245;DHT22;2136;48.502;9.194;2022-09-28T08:18:01;12.60;99.90
4245;DHT22;2136;48.502;9.194;2022-09-28T08:20:28;12.60;99.90
4245;DHT22;2136;48.502;9.194;2022-09-28T08:23:14;12.60;99.90
4245;DHT22;2136;48.502;9.194;2022-09-28T08:25:45;12.60;99.90
4245;DHT22;2136;48.502;9.194;2022-09-28T08:28:14;12.60;99.90
4245;DHT22;2136;48.502;9.194;2022-09-28T08:30:42;12.60;99.90
4245;DHT22;2136;48.502;9.194;2022-09-28T08:33:09;12.70;99.90
4245;DHT22;2136;48.502;9.194;2022-09-28T08:35:36;12.70;99.90
4245;DHT22;2136;48.502;9.194;2022-09-28T08:38:03;12.70;99.90
4245;DHT22;2136;48.502;9.194;2022-09-28T08:40:36;12.70;99.90
4245;DHT22;2136;48.502;9.194;2022-09-28T08:43:34;12.70;99.90
4245;DHT22;2136;48.502;9.194;2022-09-28T08:46:09;12.70;99.90
4245;DHT22;2136;48.502;9.194;2022-09-28T08:48:43;12.70;99.90
4245;DHT22;2136;48.502;9.194;2022-09-28T08:51:21;12.70;99.90
4245;DHT22;2136;48.502;9.194;2022-09-28T08:53:54;12.70;99.90
4245;DHT22;2136;48.502;9.194;2022-09-28T08:56:30;12.80;99.90
4245;DHT22;2136;48.502;9.194;2022-09-28T08:59:08;12.80;99.90
4245;DHT22;2136;48.502;9.194;2022-09-28T09:01:41;12.80;99.90
4245;DHT22;2136;48.502;9.194;2022-09-28T09:04:10;12.90;99.90
4245;DHT22;2136;48.502;9.194;2022-09-28T09:06:54;13.00;99.90
4245;DHT22;2136;48.502;9.194;2022-09-28T09:09:33;13.00;99.90
4245;DHT22;2136;48.502;9.194;2022-09-28T09:12:11;13.00;99.90
4245;DHT22;2136;48.502;9.194;2022-09-28T09:15:09;13.10;99.90
4245;DHT22;2136;48.502;9.194;2022-09-28T09:17:45;13.20;99.90
4245;DHT22;2136;48.502;9.194;2022-09-28T09:20:22;13.20;99.90
4245;DHT22;2136;48.502;9.194;2022-09-28T09:22:57;13.30;99.90
4245;DHT22;2136;48.502;9.194;2022-09-28T09:25:27;13.30;99.90
4245;DHT22;2136;48.502;9.194;2022-09-28T09:28:20;13.40;99.90
4245;DHT22;2136;48.502;9.194;2022-09-28T09:31:05;13.40;99.90
4245;DHT22;2136;48.502;9.194;2022-09-28T09:34:03;13.40;99.90
4245;DHT22;2136;48.502;9.194;2022-09-28T09:36:47;13.50;99.90
4245;DHT22;2136;48.502;9.194;2022-09-28T09:39:31;13.50;99.90
4245;DHT22;2136;48.502;9.194;2022-09-28T09:42:15;13.50;99.90
4245;DHT22;2136;48.502;9.194;2022-09-28T09:45:01;13.50;99.90
4245;DHT22;2136;48.502;9.194;2022-09-28T09:47:32;13.50;99.90
4245;DHT22;2136;48.502;9.194;2022-09-28T09:50:07;13.50;99.90
4245;DHT22;2136;48.502;9.194;2022-09-28T09:52:45;13.50;99.90
4245;DHT22;2136;48.502;9.194;2022-09-28T09:55:15;13.50;99.90
4245;DHT22;2136;48.502;9.194;2022-09-28T09:57:49;13.50;99.90
4245;DHT22;2136;48.502;9.194;2022-09-28T10:00:19;13.60;99.90
4245;DHT22;2136;48.502;9.194;2022-09-28T10:02:47;13.60;99.90
4245;DHT22;2136;48.502;9.194;2022-09-28T10:05:19;13.60;99.90
4245;DHT22;2136;48.502;9.194;2022-09-28T10:07:52;13.60;99.90
4245;DHT22;2136;48.502;9.194;2022-09-28T10:10:24;13.60;99.90
4245;DHT22;2136;48.502;9.194;2022-09-28T10:12:52;13.60;99.90
4245;DHT22;2136;48.502;9.194;2022-09-28T10:15:23;13.70;99.20
4245;DHT22;2136;48.502;9.194;2022-09-28T10:17:50;13.70;97.90
4245;DHT22;2136;48.502;9.194;2022-09-28T10:20:18;13.70;97.70
4245;DHT22;2136;48.502;9.194;2022-09-28T10:22:44;13.80;97.70
4245;DHT22;2136;48.502;9.194;2022-09-28T10:25:12;13.90;98.10
4245;DHT22;2136;48.502;9.194;2022-09-28T10:27:42;14.00;98.00
4245;DHT22;2136;48.502;9.194;2022-09-28T10:30:14;14.20;97.80
4245;DHT22;2136;48.502;9.194;2022-09-28T10:32:45;14.60;98.30
4245;DHT22;2136;48.502;9.194;2022-09-28T10:35:24;14.90;94.70
4245;DHT22;2136;48.502;9.194;2022-09-28T10:37:55;15.00;91.30
4245;DHT22;2136;48.502;9.194;2022-09-28T10:40:32;15.10;87.40
4245;DHT22;2136;48.502;9.194;2022-09-28T10:43:01;14.90;85.60
4245;DHT22;2136;48.502;9.194;2022-09-28T10:45:33;14.70;85.40
4245;DHT22;2136;48.502;9.194;2022-09-28T10:48:04;14.80;88.50
4245;DHT22;2136;48.502;9.194;2022-09-28T10:50:32;14.80;89.50
4245;DHT22;2136;48.502;9.194;2022-09-28T10:53:16;15.10;90.00
4245;DHT22;2136;48.502;9.194;2022-09-28T10:55:56;15.40;91.40
4245;DHT22;2136;48.502;9.194;2022-09-28T10:58:25;16.20;90.10
4245;DHT22;2136;48.502;9.194;2022-09-28T11:00:59;16.70;84.60
4245;DHT22;2136;48.502;9.194;2022-09-28T11:03:29;16.80;80.80
4245;DHT22;2136;48.502;9.194;2022-09-28T11:05:59;16.80;73.50
4245;DHT22;2136;48.502;9.194;2022-09-28T11:08:29;16.60;69.00
4245;DHT22;2136;48.502;9.194;2022-09-28T11:11:02;16.60;67.40
4245;DHT22;2136;48.502;9.194;2022-09-28T11:13:30;16.60;65.70
4245;DHT22;2136;48.502;9.194;2022-09-28T11:15:57;16.50;64.00
4245;DHT22;2136;48.502;9.194;2022-09-28T11:18:27;16.40;61.80
4245;DHT22;2136;48.502;9.194;2022-09-28T11:21:14;16.40;62.80
4245;DHT22;2136;48.502;9.194;2022-09-28T11:23:58;16.20;62.90
4245;DHT22;2136;48.502;9.194;2022-09-28T11:26:27;16.00;62.40
4245;DHT22;2136;48.502;9.194;2022-09-28T11:28:59;15.90;62.50
4245;DHT22;2136;48.502;9.194;2022-09-28T11:31:27;15.70;62.40
4245;DHT22;2136;48.502;9.194;2022-09-28T11:34:05;15.70;63.00
4245;DHT22;2136;48.502;9.194;2022-09-28T11:36:53;15.60;62.70
4245;DHT22;2136;48.502;9.194;2022-09-28T11:39:28;15.50;63.20
4245;DHT22;2136;48.502;9.194;2022-09-28T11:42:07;15.50;64.10
4245;DHT22;2136;48.502;9.194;2022-09-28T11:44:38;15.50;65.00
4245;DHT22;2136;48.502;9.194;2022-09-28T11:47:29;15.60;65.50
4245;DHT22;2136;48.502;9.194;2022-09-28T11:50:01;15.60;64.80
4245;DHT22;2136;48.502;9.194;2022-09-28T11:52:35;15.60;64.40
4245;DHT22;2136;48.502;9.194;2022-09-28T11:55:11;15.60;64.90
4245;DHT22;2136;48.502;9.194;2022-09-28T11:57:42;15.50;65.10
4245;DHT22;2136;48.502;9.194;2022-09-28T12:00:13;15.40;64.40
4245;DHT22;2136;48.502;9.194;2022-09-28T12:02:45;15.30;64.20
4245;DHT22;2136;48.502;9.194;2022-09-28T12:05:18;15.20;64.80
4245;DHT22;2136;48.502;9.194;2022-09-28T12:07:51;15.10;65.00
4245;DHT22;2136;48.502;9.194;2022-09-28T12:10:34;15.00;65.40
4245;DHT22;2136;48.502;9.194;2022-09-28T12:13:07;15.00;66.60
4245;DHT22;2136;48.502;9.194;2022-09-28T12:15:42;14.90;67.00
4245;DHT22;2136;48.502;9.194;2022-09-28T12:18:14;15.00;67.40
4245;DHT22;2136;48.502;9.194;2022-09-28T12:20:46;14.90;67.50
4245;DHT22;2136;48.502;9.194;2022-09-28T12:23:18;15.00;68.30
4245;DHT22;2136;48.502;9.194;2022-09-28T12:25:53;15.00;68.80
4245;DHT22;2136;48.502;9.194;2022-09-28T12:28:29;15.20;69.10
4245;DHT22;2136;48.502;9.194;2022-09-28T12:31:10;15.30;69.10
4245;DHT22;2136;48.502;9.194;2022-09-28T12:33:41;15.40;69.20
4245;DHT22;2136;48.502;9.194;2022-09-28T12:36:21;15.50;68.90
4245;DHT22;2136;48.502;9.194;2022-09-28T12:39:16;15.60;68.00
4245;DHT22;2136;48.502;9.194;2022-09-28T12:41:56;15.80;67.60
4245;DHT22;2136;48.502;9.194;2022-09-28T12:44:41;15.90;67.20
4245;DHT22;2136;48.502;9.194;2022-09-28T12:47:31;15.80;65.20
4245;DHT22;2136;48.502;9.194;2022-09-28T12:50:15;15.80;64.30
4245;DHT22;2136;48.502;9.194;2022-09-28T12:52:54;15.80;62.70
4245;DHT22;2136;48.502;9.194;2022-09-28T12:55:40;15.70;62.00
4245;DHT22;2136;48.502;9.194;2022-09-28T12:58:24;15.70;61.90
4245;DHT22;2136;48.502;9.194;2022-09-28T13:01:01;15.60;62.30
4245;DHT22;2136;48.502;9.194;2022-09-28T13:03:55;15.60;61.30
4245;DHT22;2136;48.502;9.194;2022-09-28T13:06:36;15.50;60.80
4245;DHT22;2136;48.502;9.194;2022-09-28T13:09:16;15.40;60.00
4245;DHT22;2136;48.502;9.194;2022-09-28T13:11:56;15.20;59.70
4245;DHT22;2136;48.502;9.194;2022-09-28T13:14:44;15.20;59.90
4245;DHT22;2136;48.502;9.194;2022-09-28T13:17:20;15.10;59.70
4245;DHT22;2136;48.502;9.194;2022-09-28T13:19:56;15.10;59.60
4245;DHT22;2136;48.502;9.194;2022-09-28T13:22:28;15.00;59.70
4245;DHT22;2136;48.502;9.194;2022-09-28T13:25:03;15.00;60.10
4245;DHT22;2136;48.502;9.194;2022-09-28T13:27:36;15.00;59.80
4245;DHT22;2136;48.502;9.194;2022-09-28T13:30:05;15.00;59.40
4245;DHT22;2136;48.502;9.194;2022-09-28T13:32:34;15.00;58.40
4245;DHT22;2136;48.502;9.194;2022-09-28T13:35:04;14.90;57.70
4245;DHT22;2136;48.502;9.194;2022-09-28T13:37:31;14.90;57.90
4245;DHT22;2136;48.502;9.194;2022-09-28T13:39:59;14.90;58.20
4245;DHT22;2136;48.502;9.194;2022-09-28T13:42:49;14.90;58.20
4245;DHT22;2136;48.502;9.194;2022-09-28T13:45:49;14.90;58.30
4245;DHT22;2136;48.502;9.194;2022-09-28T13:48:20;14.90;58.70
4245;DHT22;2136;48.502;9.194;2022-09-28T13:54:19;15.00;59.20
4245;DHT22;2136;48.502;9.194;2022-09-28T13:56:52;14.90;58.80
4245;DHT22;2136;48.502;9.194;2022-09-28T13:59:23;15.00;59.00
4245;DHT22;2136;48.502;9.194;2022-09-28T14:01:57;15.00;59.20
4245;DHT22;2136;48.502;9.194;2022-09-28T14:04:52;15.00;58.50
4245;DHT22;2136;48.502;9.194;2022-09-28T14:07:20;15.10;58.80
4245;DHT22;2136;48.502;9.194;2022-09-28T14:10:09;15.10;58.30
4245;DHT22;2136;48.502;9.194;2022-09-28T14:12:46;15.10;58.50
4245;DHT22;2136;48.502;9.194;2022-09-28T14:15:40;15.20;58.00
4245;DHT22;2136;48.502;9.194;2022-09-28T14:18:21;15.10;58.20
4245;DHT22;2136;48.502;9.194;2022-09-28T14:21:11;15.10;57.50
4245;DHT22;2136;48.502;9.194;2022-09-28T14:24:11;15.00;57.00
4245;DHT22;2136;48.502;9.194;2022-09-28T14:27:05;14.90;57.10
4245;DHT22;2136;48.502;9.194;2022-09-28T14:29:37;14.90;57.20
4245;DHT22;2136;48.502;9.194;2022-09-28T14:32:21;14.90;57.50
4245;DHT22;2136;48.502;9.194;2022-09-28T14:34:55;14.80;57.60
4245;DHT22;2136;48.502;9.194;2022-09-28T14:37:26;14.80;57.80
4245;DHT22;2136;48.502;9.194;2022-09-28T14:40:17;14.90;58.00
4245;DHT22;2136;48.502;9.194;2022-09-28T14:43:20;14.90;58.20
4245;DHT22;2136;48.502;9.194;2022-09-28T14:45:49;15.00;58.50
4245;DHT22;2136;48.502;9.194;2022-09-28T14:48:41;15.00;58.10
4245;DHT22;2136;48.502;9.194;2022-09-28T14:51:43;15.00;58.20
4245;DHT22;2136;48.502;9.194;2022-09-28T14:54:16;15.00;58.40
4245;DHT22;2136;48.502;9.194;2022-09-28T14:57:05;15.10;58.10
4245;DHT22;2136;48.502;9.194;2022-09-28T14:59:39;15.00;58.00
4245;DHT22;2136;48.502;9.194;2022-09-28T15:02:19;15.00;58.00
4245;DHT22;2136;48.502;9.194;2022-09-28T15:04:51;15.00;57.90
4245;DHT22;2136;48.502;9.194;2022-09-28T15:07:24;15.00;57.70
4245;DHT22;2136;48.502;9.194;2022-09-28T15:09:54;15.00;57.50
4245;DHT22;2136;48.502;9.194;2022-09-28T15:12:24;15.00;57.50
4245;DHT22;2136;48.502;9.194;2022-09-28T15:14:55;14.90;57.50
4245;DHT22;2136;48.502;9.194;2022-09-28T15:17:26;14.80;57.50
4245;DHT22;2136;48.502;9.194;2022-09-28T15:20:19;14.80;57.80
4245;DHT22;2136;48.502;9.194;2022-09-28T15:22:49;14.90;58.30
4245;DHT22;2136;48.502;9.194;2022-09-28T15:25:18;14.80;58.10
4245;DHT22;2136;48.502;9.194;2022-09-28T15:27:50;14.80;58.10
4245;DHT22;2136;48.502;9.194;2022-09-28T15:30:23;14.70;58.40
4245;DHT22;2136;48.502;9.194;2022-09-28T15:32:51;14.70;59.20
4245;DHT22;2136;48.502;9.194;2022-09-28T15:35:25;14.60;60.00
4245;DHT22;2136;48.502;9.194;2022-09-28T15:37:53;14.60;61.30
4245;DHT22;2136;48.502;9.194;2022-09-28T15:40:28;14.60;62.50
4245;DHT22;2136;48.502;9.194;2022-09-28T15:42:56;14.40;63.30
4245;DHT22;2136;48.502;9.194;2022-09-28T15:45:27;14.30;64.00
4245;DHT22;2136;48.502;9.194;2022-09-28T15:48:17;14.30;64.60
4245;DHT22;2136;48.502;9.194;2022-09-28T15:51:01;14.20;65.50
4245;DHT22;2136;48.502;9.194;2022-09-28T15:53:29;14.10;66.10
4245;DHT22;2136;48.502;9.194;2022-09-28T15:56:01;14.10;66.70
4245;DHT22;2136;48.502;9.194;2022-09-28T15:58:34;14.00;67.20
4245;DHT22;2136;48.502;9.194;2022-09-28T16:01:25;14.00;67.70
4245;DHT22;2136;48.502;9.194;2022-09-28T16:03:52;13.80;68.10
4245;DHT22;2136;48.502;9.194;2022-09-28T16:06:21;13.90;68.50
4245;DHT22;2136;48.502;9.194;2022-09-28T16:08:48;13.70;69.10
4245;DHT22;2136;48.502;9.194;2022-09-28T16:11:18;13.70;69.50
4245;DHT22;2136;48.502;9.194;2022-09-28T16:13:56;13.70;70.00
4245;DHT22;2136;48.502;9.194;2022-09-28T16:16:29;13.60;70.50
4245;DHT22;2136;48.502;9.194;2022-09-28T16:18:57;13.50;71.10
4245;DHT22;2136;48.502;9.194;2022-09-28T16:21:41;13.60;71.80
4245;DHT22;2136;48.502;9.194;2022-09-28T16:24:18;13.50;72.70
4245;DHT22;2136;48.502;9.194;2022-09-28T16:26:46;13.50;73.00
4245;DHT22;2136;48.502;9.194;2022-09-28T16:29:24;13.40;72.50
4245;DHT22;2136;48.502;9.194;2022-09-28T16:31:51;13.40;72.40
4245;DHT22;2136;48.502;9.194;2022-09-28T16:34:19;13.30;72.10
4245;DHT22;2136;48.502;9.194;2022-09-28T16:36:48;13.20;71.90
4245;DHT22;2136;48.502;9.194;2022-09-28T16:39:16;13.20;71.90
4245;DHT22;2136;48.502;9.194;2022-09-28T16:41:46;13.10;71.70
4245;DHT22;2136;48.502;9.194;2022-09-28T16:44:18;13.10;71.70
4245;DHT22;2136;48.502;9.194;2022-09-28T16:46:48;13.00;72.10
4245;DHT22;2136;48.502;9.194;2022-09-28T16:49:16;13.00;72.40